Time;durP1;ratioP1;P1;durP2;ratioP2;P2;SDS_P1;SDS_P2;PMS_P1;PMS_P2;Temp;Humidity;BMP_temperature;BMP_pressure;BME280_temperature;BME280_humidity;BME280_pressure;Samples;Min_cycle;Max_cycle;Signal;HPM_P1;HPM_P2
2021/07/23 00:00:36;;;;;;;4.00;3.47;;;;;;;16.87;63.05;101225.81;5048676;28;20228;-66
2021/07/23 00:03:02;;;;;;;4.93;3.77;;;;;;;16.83;63.20;101230.63;5049585;28;20208;-67
2021/07/23 00:05:29;;;;;;;3.40;3.10;;;;;;;16.81;63.26;101229.03;5040824;28;20204;-67
2021/07/23 00:07:57;;;;;;;5.27;3.80;;;;;;;16.79;63.47;101233.69;5043373;28;20213;-67
2021/07/23 00:10:23;;;;;;;4.43;3.63;;;;;;;16.77;63.50;101224.88;5038270;28;20223;-66
2021/07/23 00:12:50;;;;;;;4.00;3.60;;;;;;;16.76;63.56;101233.91;5046250;28;20210;-68
2021/07/23 00:15:16;;;;;;;5.93;3.67;;;;;;;16.74;63.70;101222.41;5037436;28;20823;-67
2021/07/23 00:17:43;;;;;;;5.80;4.47;;;;;;;16.72;63.82;101229.75;5045592;28;20228;-67
2021/07/23 00:20:10;;;;;;;4.67;3.67;;;;;;;16.72;63.99;101229.75;5042130;28;20235;-66
2021/07/23 00:22:38;;;;;;;4.10;3.63;;;;;;;16.70;63.99;101227.19;5047522;28;20582;-66
2021/07/23 00:25:06;;;;;;;6.37;4.10;;;;;;;16.69;63.91;101230.00;5044787;28;20211;-66
2021/07/23 00:27:32;;;;;;;4.97;4.13;;;;;;;16.60;63.73;101220.81;5044092;28;20208;-66
2021/07/23 00:29:59;;;;;;;9.43;4.27;;;;;;;16.48;63.56;101219.91;5037912;28;20584;-67
2021/07/23 00:32:26;;;;;;;5.07;3.93;;;;;;;16.38;63.90;101223.47;5044337;28;20791;-66
2021/07/23 00:34:52;;;;;;;4.93;4.23;;;;;;;16.26;64.45;101219.91;5048044;28;20213;-67
2021/07/23 00:37:19;;;;;;;4.20;3.80;;;;;;;16.18;64.76;101216.97;5044313;28;20587;-66
2021/07/23 00:39:45;;;;;;;4.73;3.90;;;;;;;16.12;65.20;101226.34;5039537;28;20229;-66
2021/07/23 00:42:13;;;;;;;4.57;4.03;;;;;;;16.09;65.27;101221.22;5034627;28;20584;-66
2021/07/23 00:44:40;;;;;;;4.73;3.80;;;;;;;16.07;65.50;101216.94;5033448;28;20590;-65
2021/07/23 00:47:06;;;;;;;4.70;4.23;;;;;;;16.01;65.26;101217.41;5043913;28;20209;-66
2021/07/23 00:49:33;;;;;;;4.50;4.10;;;;;;;15.92;65.65;101219.84;5039316;28;20237;-66
2021/07/23 00:52:00;;;;;;;5.10;4.60;;;;;;;15.84;65.58;101216.88;5044964;28;20232;-66
2021/07/23 00:54:27;;;;;;;4.50;4.07;;;;;;;15.73;65.50;101207.94;5040129;28;20197;-66
2021/07/23 00:56:54;;;;;;;5.77;4.20;;;;;;;15.61;65.83;101215.94;5049740;28;20235;-67
2021/07/23 00:59:22;;;;;;;4.83;4.33;;;;;;;15.54;66.41;101219.16;5039871;28;20229;-66
2021/07/23 01:01:50;;;;;;;5.93;4.17;;;;;;;15.48;66.57;101223.16;5046316;28;20194;-66
2021/07/23 01:04:16;;;;;;;4.30;3.90;;;;;;;15.46;67.19;101216.19;5049282;28;20212;-66
2021/07/23 01:06:43;;;;;;;5.20;4.17;;;;;;;15.44;67.41;101218.97;5049615;28;20228;-66
2021/07/23 01:09:09;;;;;;;4.50;4.10;;;;;;;15.42;67.43;101220.94;5048908;28;20742;-66
2021/07/23 01:11:38;;;;;;;6.80;4.70;;;;;;;15.40;67.21;101219.34;5041599;28;20219;-66
2021/07/23 01:14:06;;;;;;;5.23;4.17;;;;;;;15.36;67.49;101215.19;5041954;28;20206;-65
2021/07/23 01:16:34;;;;;;;6.27;4.60;;;;;;;15.33;67.87;101220.78;5048745;28;20206;-66
2021/07/23 01:19:01;;;;;;;4.60;4.20;;;;;;;15.28;67.77;101210.38;5038696;28;20335;-66
2021/07/23 01:21:28;;;;;;;4.43;3.93;;;;;;;15.21;68.10;101212.66;5046879;28;20204;-66
2021/07/23 01:23:59;;;;;;;4.57;4.17;;;;;;;15.15;68.37;101214.94;5045038;28;20201;-66
2021/07/23 01:26:26;;;;;;;5.47;4.60;;;;;;;15.05;68.12;101213.91;5047185;28;20202;-66
2021/07/23 01:28:52;;;;;;;4.50;4.07;;;;;;;14.96;68.33;101207.38;5051611;28;20625;-66
2021/07/23 01:31:19;;;;;;;4.80;4.37;;;;;;;14.89;68.48;101209.63;5047411;28;20236;-66
2021/07/23 01:33:46;;;;;;;6.37;4.83;;;;;;;14.84;68.89;101209.13;5049098;28;20588;-66
2021/07/23 01:36:13;;;;;;;4.87;4.47;;;;;;;14.79;69.60;101203.22;5039989;28;20213;-66
2021/07/23 01:38:42;;;;;;;5.00;4.00;;;;;;;14.77;70.09;101204.31;5051357;28;20719;-66
2021/07/23 01:41:10;;;;;;;6.07;4.90;;;;;;;14.78;70.23;101204.19;5046672;28;20206;-66
2021/07/23 01:43:38;;;;;;;6.27;4.47;;;;;;;14.79;69.85;101195.19;5050663;28;20206;-66
2021/07/23 01:46:05;;;;;;;5.80;4.53;;;;;;;14.78;70.49;101198.84;5053656;28;20216;-65
2021/07/23 01:48:31;;;;;;;5.53;4.97;;;;;;;14.79;70.69;101197.88;5052155;28;20205;-66
2021/07/23 01:50:58;;;;;;;6.10;4.70;;;;;;;14.80;70.71;101194.22;5044954;28;20216;-66
2021/07/23 01:53:24;;;;;;;4.80;4.30;;;;;;;14.80;70.62;101196.03;5045121;28;20549;-66
2021/07/23 01:55:51;;;;;;;5.67;5.03;;;;;;;14.82;71.09;101204.84;5045806;28;20201;-66
2021/07/23 01:58:19;;;;;;;7.93;5.03;;;;;;;14.83;71.11;101202.06;5044953;28;20213;-66
2021/07/23 02:00:45;;;;;;;8.97;4.70;;;;;;;14.85;70.93;101204.63;5047354;28;20208;-66
2021/07/23 02:03:12;;;;;;;5.77;4.67;;;;;;;14.85;71.04;101201.94;5046754;28;20202;-65
2021/07/23 02:05:38;;;;;;;6.57;4.97;;;;;;;14.83;70.87;101206.56;5048236;28;20225;-65
2021/07/23 02:08:05;;;;;;;5.13;4.63;;;;;;;14.80;70.70;101204.94;5048382;28;20221;-66
2021/07/23 02:10:32;;;;;;;5.23;4.73;;;;;;;14.78;71.22;101197.97;5042578;28;20222;-66
2021/07/23 02:13:00;;;;;;;6.40;5.20;;;;;;;14.76;71.49;101194.53;5049303;28;20225;-66
2021/07/23 02:15:28;;;;;;;6.97;5.23;;;;;;;14.77;71.49;101197.13;5040382;28;20206;-66
2021/07/23 02:17:54;;;;;;;5.37;4.87;;;;;;;14.79;71.72;101197.00;5048332;28;20198;-66
2021/07/23 02:20:21;;;;;;;8.10;5.17;;;;;;;14.79;71.58;101195.19;5050765;28;20602;-66
2021/07/23 02:22:47;;;;;;;5.67;4.70;;;;;;;14.80;71.57;101194.22;5051389;28;20205;-66
2021/07/23 02:25:14;;;;;;;7.73;5.37;;;;;;;14.80;71.28;101185.31;5043689;28;20660;-66
2021/07/23 02:27:40;;;;;;;6.83;5.47;;;;;;;14.80;71.74;101180.81;5042650;28;20659;-65
2021/07/23 02:30:08;;;;;;;7.10;5.13;;;;;;;14.80;71.91;101174.59;5042074;28;20226;-65
2021/07/23 02:32:36;;;;;;;6.87;4.97;;;;;;;14.81;71.67;101179.00;5049225;28;20225;-66
2021/07/23 02:35:03;;;;;;;5.70;4.40;;;;;;;14.81;71.78;101181.66;5047748;28;20216;-66
2021/07/23 02:37:30;;;;;;;7.30;4.63;;;;;;;14.77;71.06;101175.66;5047881;28;20208;-66
2021/07/23 02:39:56;;;;;;;5.47;4.60;;;;;;;14.74;71.18;101173.19;5042557;28;20322;-66
2021/07/23 02:42:23;;;;;;;11.40;5.00;;;;;;;14.73;71.36;101173.31;5046323;28;20202;-66
2021/07/23 02:44:49;;;;;;;5.10;4.60;;;;;;;14.72;71.97;101172.44;5044602;28;20216;-65
2021/07/23 02:47:16;;;;;;;5.63;4.27;;;;;;;14.69;71.63;101180.72;5045569;28;20216;-66
2021/07/23 02:49:44;;;;;;;4.63;4.23;;;;;;;14.64;71.20;101166.81;5045555;28;20248;-66
2021/07/23 02:52:10;;;;;;;4.60;4.20;;;;;;;14.57;71.04;101163.69;5040663;28;20229;-66
2021/07/23 02:54:37;;;;;;;5.43;4.70;;;;;;;14.51;71.47;101172.16;5047297;28;20214;-66
2021/07/23 02:57:04;;;;;;;5.90;5.00;;;;;;;14.46;71.38;101166.31;5048174;28;20205;-65
2021/07/23 02:59:30;;;;;;;5.40;4.90;;;;;;;14.40;71.55;101169.41;5047405;28;20222;-65
2021/07/23 03:01:57;;;;;;;7.13;4.87;;;;;;;14.35;71.40;101163.47;5039037;28;20210;-65
2021/07/23 03:04:23;;;;;;;6.43;5.00;;;;;;;14.27;71.73;101162.31;5034836;28;20202;-65
2021/07/23 03:06:51;;;;;;;5.80;5.13;;;;;;;14.22;72.01;101165.31;5047468;28;20603;-66
2021/07/23 03:09:17;;;;;;;5.40;4.90;;;;;;;14.19;72.32;101157.50;5043487;28;20316;-66
2021/07/23 03:11:44;;;;;;;5.70;4.83;;;;;;;14.16;72.21;101157.69;5047065;28;20241;-66
2021/07/23 03:14:10;;;;;;;5.87;5.23;;;;;;;14.13;72.85;101158.81;5046775;28;20667;-66
2021/07/23 03:16:37;;;;;;;6.17;5.10;;;;;;;14.10;72.85;101163.50;5046188;28;20214;-66
2021/07/23 03:19:03;;;;;;;7.77;4.63;;;;;;;14.05;72.51;101158.47;5048967;28;20232;-65
2021/07/23 03:21:30;;;;;;;6.07;5.47;;;;;;;14.01;73.14;101154.28;5047654;28;21569;-66
2021/07/23 03:23:58;;;;;;;6.03;4.57;;;;;;;13.95;73.20;101157.41;5046324;28;20224;-65
2021/07/23 03:26:24;;;;;;;5.43;4.57;;;;;;;13.93;72.98;101155.78;5046514;28;20683;-66
2021/07/23 03:28:51;;;;;;;6.20;4.90;;;;;;;13.87;73.22;101155.25;5049183;28;20217;-66
2021/07/23 03:31:17;;;;;;;7.23;5.30;;;;;;;13.84;73.09;101155.44;5039260;28;20210;-66
2021/07/23 03:33:44;;;;;;;6.10;4.57;;;;;;;13.80;73.66;101153.94;5045804;28;20209;-65
2021/07/23 03:36:10;;;;;;;8.30;5.37;;;;;;;13.77;73.65;101159.53;5040728;28;20727;-66
2021/07/23 03:38:37;;;;;;;6.90;4.83;;;;;;;13.75;73.82;101152.56;5049002;23;20226;-77
2021/07/23 03:41:05;;;;;;;6.53;5.33;;;;;;;13.74;73.97;101149.03;5011685;28;20582;-77
2021/07/23 03:43:31;;;;;;;5.73;4.67;;;;;;;13.72;74.33;101152.75;5012492;28;20218;-78
2021/07/23 03:45:59;;;;;;;6.73;5.00;;;;;;;13.72;74.22;101153.63;5012988;28;20211;-78
2021/07/23 03:48:25;;;;;;;6.57;4.80;;;;;;;13.74;74.15;101151.69;5012868;28;20226;-78
2021/07/23 03:50:52;;;;;;;8.77;5.03;;;;;;;13.77;74.36;101156.00;5011263;28;20568;-78
2021/07/23 03:53:18;;;;;;;7.97;4.90;;;;;;;13.78;74.61;101155.88;5012544;28;20227;-78
2021/07/23 03:55:45;;;;;;;8.50;5.03;;;;;;;13.81;74.53;101158.31;5008060;28;20211;-79
2021/07/23 03:58:13;;;;;;;6.67;5.00;;;;;;;13.83;74.53;101155.56;5010591;28;20238;-79
2021/07/23 04:00:40;;;;;;;6.50;4.50;;;;;;;13.81;74.63;101155.66;5009904;28;20205;-79
2021/07/23 04:03:06;;;;;;;6.83;4.90;;;;;;;13.78;74.35;101152.34;5007284;28;20203;-78
2021/07/23 04:05:33;;;;;;;7.67;4.80;;;;;;;13.73;74.15;101149.13;5004432;28;20206;-79
2021/07/23 04:07:59;;;;;;;6.47;5.23;;;;;;;13.69;74.57;101148.47;5004596;28;20231;-78
2021/07/23 04:10:26;;;;;;;8.67;5.03;;;;;;;13.67;74.48;101155.75;5013451;28;20210;-78
2021/07/23 04:12:53;;;;;;;5.67;5.07;;;;;;;13.65;74.80;101157.66;5011294;28;20241;-79
2021/07/23 04:15:21;;;;;;;6.07;4.57;;;;;;;13.65;74.58;101151.44;5005966;28;20207;-77
2021/07/23 04:17:48;;;;;;;9.43;4.83;;;;;;;13.64;74.92;101153.28;5010953;28;20223;-78
2021/07/23 04:20:15;;;;;;;5.40;4.90;;;;;;;13.63;74.93;101154.22;5012536;28;20217;-77
2021/07/23 04:22:42;;;;;;;6.90;5.47;;;;;;;13.63;75.23;101154.22;5008144;28;20210;-78
2021/07/23 04:25:10;;;;;;;7.33;5.00;;;;;;;13.63;75.36;101153.38;5012641;28;20217;-78
2021/07/23 04:27:36;;;;;;;6.53;5.03;;;;;;;13.64;75.37;101150.59;5010080;28;20713;-77
2021/07/23 04:30:03;;;;;;;6.23;4.93;;;;;;;13.63;75.46;101153.38;5012279;28;20293;-78
2021/07/23 04:32:31;;;;;;;5.80;5.07;;;;;;;13.64;75.46;101153.28;5012272;28;20223;-79
2021/07/23 04:34:58;;;;;;;9.23;5.27;;;;;;;13.64;75.53;101147.91;5005370;28;20217;-78
2021/07/23 04:37:24;;;;;;;6.57;4.77;;;;;;;13.64;75.56;101150.59;5011028;28;20210;-79
2021/07/23 04:39:50;;;;;;;5.47;4.97;;;;;;;13.68;76.26;101154.78;5005544;28;20221;-79
2021/07/23 04:42:17;;;;;;;5.80;5.17;;;;;;;13.74;76.03;101153.53;5009901;28;20206;-78
2021/07/23 04:44:43;;;;;;;6.07;5.40;;;;;;;13.78;76.39;101152.34;5005771;28;20575;-78
2021/07/23 04:47:10;;;;;;;8.33;5.03;;;;;;;13.82;76.68;101149.34;5011086;28;20213;-79
2021/07/23 04:49:38;;;;;;;5.57;5.03;;;;;;;13.88;76.79;101148.06;5011874;28;20567;-80
2021/07/23 04:52:05;;;;;;;5.17;4.60;;;;;;;13.93;76.81;101148.63;5016943;28;20318;-79
2021/07/23 04:54:31;;;;;;;11.23;5.33;;;;;;;13.97;76.52;101150.13;5016276;28;20558;-78
2021/07/23 04:56:58;;;;;;;6.27;4.53;;;;;;;14.03;77.00;101148.81;5014666;28;20207;-79
2021/07/23 04:59:25;;;;;;;7.73;4.90;;;;;;;14.06;76.64;101152.16;5010766;28;20223;-78
2021/07/23 05:01:51;;;;;;;5.17;4.57;;;;;;;14.13;76.35;101147.22;5011256;28;20195;-78
2021/07/23 05:04:18;;;;;;;5.93;4.77;;;;;;;14.16;76.18;101142.47;5016239;28;20202;-78
2021/07/23 05:06:46;;;;;;;7.37;4.83;;;;;;;14.21;76.36;101148.38;5016958;28;20599;-77
2021/07/23 05:09:13;;;;;;;4.97;4.30;;;;;;;14.25;76.23;101151.72;5013965;28;20269;-79
2021/07/23 05:11:39;;;;;;;6.27;4.70;;;;;;;14.28;75.95;101146.13;5015920;28;20215;-78
2021/07/23 05:14:07;;;;;;;5.20;4.67;;;;;;;14.33;76.28;101149.31;5016461;28;20234;-79
2021/07/23 05:16:34;;;;;;;8.30;5.27;;;;;;;14.38;75.77;101146.31;5016780;28;20223;-77
2021/07/23 05:19:01;;;;;;;7.10;5.17;;;;;;;14.42;75.85;101142.50;5015026;28;20314;-78
2021/07/23 05:21:29;;;;;;;7.27;4.57;;;;;;;14.47;75.63;101146.56;5012831;28;20203;-79
2021/07/23 05:24:03;;;;;;;7.70;5.23;;;;;;;14.53;75.86;101145.25;5002988;28;20195;-79
2021/07/23 05:26:31;;;;;;;7.50;5.23;;;;;;;14.58;75.64;101143.13;5002878;28;20207;-79
2021/07/23 05:28:58;;;;;;;7.57;4.73;;;;;;;14.63;74.83;101148.16;5011020;28;20321;-79
2021/07/23 05:31:25;;;;;;;7.30;5.80;;;;;;;14.66;74.77;101154.16;5014742;28;20207;-78
2021/07/23 05:33:51;;;;;;;6.93;5.07;;;;;;;14.70;74.70;101144.03;5015269;28;20222;-79
2021/07/23 05:36:18;;;;;;;5.40;4.90;;;;;;;14.74;74.64;101149.06;5014777;28;20215;-79
2021/07/23 05:38:44;;;;;;;8.20;5.17;;;;;;;14.79;74.64;101143.38;5013731;28;20233;-79
2021/07/23 05:41:12;;;;;;;8.27;5.27;;;;;;;14.86;74.29;101147.34;5017018;28;20207;-79
2021/07/23 05:43:38;;;;;;;5.20;4.70;;;;;;;14.91;74.25;101139.78;5015605;28;20211;-79
2021/07/23 05:46:06;;;;;;;6.97;4.83;;;;;;;14.99;74.62;101145.47;5018735;28;20213;-78
2021/07/23 05:48:32;;;;;;;7.73;4.70;;;;;;;15.08;74.58;101144.75;5015533;28;20816;-78
2021/07/23 05:51:03;;;;;;;7.50;4.50;;;;;;;15.18;74.43;101143.13;5011603;28;20211;-79
2021/07/23 05:53:30;;;;;;;5.50;5.00;;;;;;;15.29;74.14;101148.53;5018323;28;20234;-78
2021/07/23 05:55:58;;;;;;;5.90;4.80;;;;;;;15.41;73.71;101146.75;5012873;28;20228;-78
2021/07/23 05:58:26;;;;;;;7.23;5.80;;;;;;;15.51;73.77;101147.78;5014687;28;20223;-79
2021/07/23 06:00:53;;;;;;;6.97;4.77;;;;;;;15.63;73.33;101146.84;5015861;28;20199;-78
2021/07/23 06:03:19;;;;;;;12.77;4.90;;;;;;;15.76;73.39;101138.75;5009264;28;20719;-78
2021/07/23 06:05:49;;;;;;;6.97;5.40;;;;;;;15.93;72.93;101140.13;5011416;28;20301;-79
2021/07/23 06:08:18;;;;;;;6.83;5.07;;;;;;;16.10;72.81;101142.34;5014230;28;20526;-78
2021/07/23 06:10:44;;;;;;;7.03;4.50;;;;;;;16.23;71.83;101142.22;5013448;28;20203;-79
2021/07/23 06:13:11;;;;;;;8.83;4.73;;;;;;;16.35;70.93;101140.38;5012333;28;20230;-78
2021/07/23 06:15:39;;;;;;;7.63;4.67;;;;;;;16.45;70.12;101136.84;5014757;28;20261;-78
2021/07/23 06:18:06;;;;;;;12.37;4.80;;;;;;;16.56;70.23;101134.13;5012573;28;20712;-79
2021/07/23 06:20:32;;;;;;;6.50;4.57;;;;;;;16.70;69.32;101134.88;5013416;28;20204;-78
2021/07/23 06:22:59;;;;;;;7.53;4.33;;;;;;;16.81;68.91;101142.94;5011283;28;20661;-79
2021/07/23 06:25:26;;;;;;;6.30;4.33;;;;;;;16.94;68.73;101138.25;5011224;28;20213;-79
2021/07/23 06:27:52;;;;;;;7.77;4.27;;;;;;;17.10;68.16;101136.00;5012086;28;20703;-78
2021/07/23 06:30:19;;;;;;;6.40;4.10;;;;;;;17.20;67.08;101145.03;5011218;28;20208;-78
2021/07/23 06:32:47;;;;;;;5.83;4.27;;;;;;;17.34;67.09;101138.50;5011059;28;20906;-79
2021/07/23 06:35:14;;;;;;;5.13;3.83;;;;;;;17.50;66.98;101138.06;5012131;28;20240;-79
2021/07/23 06:37:41;;;;;;;5.13;3.80;;;;;;;17.69;66.46;101135.56;5012288;28;20228;-79
2021/07/23 06:40:08;;;;;;;7.10;3.60;;;;;;;17.87;65.88;101139.38;5012774;28;20301;-78
2021/07/23 06:42:36;;;;;;;6.67;3.70;;;;;;;18.04;64.77;101140.59;5013781;28;20643;-79
2021/07/23 06:45:03;;;;;;;4.67;3.53;;;;;;;18.17;63.91;101143.06;5014532;28;20260;-79
2021/07/23 06:47:30;;;;;;;6.83;3.40;;;;;;;18.29;62.92;101145.53;5011592;28;20234;-79
2021/07/23 06:49:59;;;;;;;9.23;3.90;;;;;;;18.41;62.13;101146.31;5014098;28;20251;-79
2021/07/23 06:52:26;;;;;;;5.77;3.47;;;;;;;18.53;61.57;101147.91;5013507;28;20212;-79
2021/07/23 06:54:53;;;;;;;6.83;3.27;;;;;;;18.65;61.06;101151.38;5014126;28;20665;-78
2021/07/23 06:57:20;;;;;;;5.37;3.30;;;;;;;18.75;60.63;101149.59;5012300;28;20208;-78
2021/07/23 06:59:48;;;;;;;8.70;4.30;;;;;;;18.84;59.34;101150.59;5013756;28;20211;-78
2021/07/23 07:02:15;;;;;;;8.67;3.77;;;;;;;18.91;59.93;101149.91;5012175;28;20204;-79
2021/07/23 07:04:44;;;;;;;5.67;3.50;;;;;;;19.05;59.81;101148.66;5013098;28;20594;-78
2021/07/23 07:07:13;;;;;;;5.17;3.73;;;;;;;19.24;59.53;101153.22;5012281;28;20307;-79
2021/07/23 07:09:42;;;;;;;7.13;3.53;;;;;;;19.43;59.23;101156.81;5013747;28;20628;-79
2021/07/23 07:12:11;;;;;;;5.40;2.70;;;;;;;19.61;58.23;101148.00;5008797;28;20216;-78
2021/07/23 07:14:41;;;;;;;5.13;3.70;;;;;;;19.76;57.66;101141.16;5012989;28;20585;-79
2021/07/23 07:17:11;;;;;;;5.40;2.70;;;;;;;19.90;56.93;101140.72;5010792;28;20200;-78
2021/07/23 07:19:38;;;;;;;5.83;3.13;;;;;;;19.96;55.82;101134.72;5012353;28;20678;-78
2021/07/23 07:22:06;;;;;;;4.23;3.17;;;;;;;19.99;55.79;101134.44;5012435;28;20300;-79
2021/07/23 07:24:36;;;;;;;8.47;2.87;;;;;;;20.07;54.94;101130.97;5013008;28;20296;-79
2021/07/23 07:27:03;;;;;;;3.80;3.00;;;;;;;20.05;54.21;101141.97;5011743;28;20304;-78
2021/07/23 07:29:32;;;;;;;6.57;2.93;;;;;;;20.08;54.21;101133.53;5013200;28;20231;-78
2021/07/23 07:31:59;;;;;;;5.10;2.80;;;;;;;20.19;54.75;101134.38;5011871;28;20212;-78
2021/07/23 07:34:34;;;;;;;5.13;2.87;;;;;;;20.32;54.39;101129.50;5012808;28;20220;-79
2021/07/23 07:37:00;;;;;;;3.20;2.37;;;;;;;20.47;54.09;101133.44;5012220;28;20577;-79
2021/07/23 07:39:27;;;;;;;5.33;2.50;;;;;;;20.55;52.75;101127.28;5009343;28;20331;-79
2021/07/23 07:41:55;;;;;;;4.13;2.73;;;;;;;20.66;52.32;101127.09;5013289;28;20668;-79
2021/07/23 07:44:21;;;;;;;4.10;2.57;;;;;;;20.70;51.76;101133.91;5008310;28;20201;-78
2021/07/23 07:46:48;;;;;;;8.20;2.77;;;;;;;20.74;51.89;101132.59;5010520;28;20206;-79
2021/07/23 07:49:16;;;;;;;5.20;2.57;;;;;;;20.82;51.91;101135.41;5011990;28;20673;-79
2021/07/23 07:51:42;;;;;;;4.17;2.50;;;;;;;20.90;51.61;101135.50;5014136;28;20200;-79
2021/07/23 07:54:10;;;;;;;3.37;2.10;;;;;;;20.96;51.85;101134.88;5012109;28;20233;-79
2021/07/23 07:56:37;;;;;;;5.10;2.43;;;;;;;21.05;50.87;101122.28;5013631;28;20220;-79
2021/07/23 07:59:05;;;;;;;4.30;2.67;;;;;;;21.10;51.20;101125.41;5011930;28;20225;-79
2021/07/23 08:01:31;;;;;;;4.30;2.57;;;;;;;21.17;51.29;101126.47;5013147;28;20655;-79
2021/07/23 08:03:58;;;;;;;3.87;2.40;;;;;;;21.27;51.48;101121.88;5013355;28;20215;-79
2021/07/23 08:06:26;;;;;;;5.17;3.00;;;;;;;21.42;51.09;101120.31;5017942;28;20221;-79
2021/07/23 08:08:55;;;;;;;2.73;2.03;;;;;;;21.55;50.79;101119.06;5019743;28;20312;-79
2021/07/23 08:11:22;;;;;;;4.33;2.40;;;;;;;21.65;49.63;101114.41;5013794;28;20217;-78
2021/07/23 08:13:48;;;;;;;4.87;2.63;;;;;;;21.68;49.89;101117.63;5014499;28;20252;-79
2021/07/23 08:16:16;;;;;;;3.67;2.37;;;;;;;21.72;49.95;101121.75;5013352;28;20214;-79
2021/07/23 08:18:43;;;;;;;4.77;2.53;;;;;;;21.78;49.79;101112.13;5012860;28;20225;-79
2021/07/23 08:21:09;;;;;;;3.33;2.50;;;;;;;21.89;49.83;101114.56;5009571;28;20583;-79
2021/07/23 08:23:36;;;;;;;2.80;2.47;;;;;;;22.04;49.82;101107.59;5006685;28;20296;-80
2021/07/23 08:26:04;;;;;;;3.53;2.33;;;;;;;22.23;49.41;101105.66;5013025;28;20208;-78
2021/07/23 08:28:30;;;;;;;3.05;2.40;;;;;;;22.36;49.00;101109.66;5016588;28;20646;-79
2021/07/23 08:30:57;;;;;;;4.22;2.30;;;;;;;22.43;48.83;101113.41;5017907;28;20217;-78
2021/07/23 08:33:25;;;;;;;5.05;2.65;;;;;;;22.55;48.61;101113.13;5015870;28;20233;-78
2021/07/23 08:35:52;;;;;;;4.45;2.20;;;;;;;22.64;48.05;101112.97;5017367;28;20619;-78
2021/07/23 08:38:19;;;;;;;6.45;1.85;;;;;;;22.76;47.33;101106.22;5015603;28;20230;-78
2021/07/23 08:40:45;;;;;;;4.53;2.35;;;;;;;22.84;47.04;101116.31;5018905;28;20210;-79
2021/07/23 08:43:12;;;;;;;5.43;2.58;;;;;;;22.97;46.68;101116.66;5016030;28;20203;-79
2021/07/23 08:45:40;;;;;;;2.75;2.40;;;;;;;23.09;46.51;101106.34;5014210;28;20201;-79
2021/07/23 08:48:07;;;;;;;2.85;2.42;;;;;;;23.23;45.99;101099.41;5015203;28;20313;-78
2021/07/23 08:50:35;;;;;;;3.28;2.25;;;;;;;23.25;45.69;101108.25;5017858;28;20199;-78
2021/07/23 08:53:09;;;;;;;3.28;2.22;;;;;;;23.19;45.50;101099.75;5016023;28;20234;-79
2021/07/23 08:55:36;;;;;;;4.40;2.58;;;;;;;23.14;45.13;101103.97;5012536;28;20264;-78
2021/07/23 08:58:06;;;;;;;3.47;2.72;;;;;;;23.14;45.37;101103.97;5016141;28;20227;-79
2021/07/23 09:00:33;;;;;;;5.40;2.72;;;;;;;23.15;45.42;101098.38;5013623;28;20672;-77
2021/07/23 09:03:03;;;;;;;5.63;3.00;;;;;;;23.23;45.58;101091.25;5021893;28;20207;-75
2021/07/23 09:05:31;;;;;;;4.65;3.13;;;;;;;23.32;45.16;101098.38;5013985;28;20663;-76
2021/07/23 09:08:11;;;;;;;5.10;3.15;;;;;;;23.41;44.89;101095.50;5013387;28;20755;-77
2021/07/23 09:10:38;;;;;;;4.80;3.03;;;;;;;23.49;44.52;101086.50;5012495;28;20210;-77
2021/07/23 09:13:05;;;;;;;3.08;2.78;;;;;;;23.51;44.23;101088.06;5015062;28;20217;-77
2021/07/23 09:15:38;;;;;;;5.97;3.35;;;;;;;23.60;43.60;101088.91;5015329;28;21258;-77
2021/07/23 09:18:05;;;;;;;3.42;3.13;;;;;;;23.68;43.83;101079.88;5015690;28;20253;-77
2021/07/23 09:20:33;;;;;;;3.47;2.85;;;;;;;23.77;43.52;101078.88;5014333;28;20206;-77
2021/07/23 09:23:03;;;;;;;5.70;3.33;;;;;;;23.84;43.50;101086.16;5012310;28;20216;-77
2021/07/23 09:25:37;;;;;;;4.35;3.30;;;;;;;23.86;43.00;101077.81;5016568;28;20206;-77
2021/07/23 09:28:20;;;;;;;4.93;3.08;;;;;;;23.84;43.19;101074.41;5013410;28;20272;-76
2021/07/23 09:30:47;;;;;;;6.18;3.10;;;;;;;23.82;43.05;101074.63;5015730;28;20199;-77
2021/07/23 09:33:14;;;;;;;4.35;3.30;;;;;;;23.87;42.98;101066.75;5016358;28;20223;-76
2021/07/23 09:35:52;;;;;;;6.78;3.92;;;;;;;23.96;43.04;101062.16;5010088;28;20298;-77
2021/07/23 09:38:21;;;;;;;4.68;3.60;;;;;;;24.07;43.17;101066.38;5010792;28;20731;-76
2021/07/23 09:40:49;;;;;;;6.38;3.35;;;;;;;24.18;43.15;101066.84;5013496;28;20212;-76
2021/07/23 09:43:29;;;;;;;5.18;3.75;;;;;;;24.21;42.22;101060.19;5006632;28;20210;-77
2021/07/23 09:45:56;;;;;;;4.78;3.95;;;;;;;24.25;41.74;101069.75;5005473;28;20204;-77
2021/07/23 09:48:22;;;;;;;3.83;3.50;;;;;;;24.30;42.31;101064.63;5008997;28;20231;-77
2021/07/23 09:50:49;;;;;;;6.05;3.88;;;;;;;24.38;41.54;101063.75;5008226;28;20793;-77
2021/07/23 09:53:19;;;;;;;5.55;3.80;;;;;;;24.39;41.12;101060.00;5014294;28;20221;-77
2021/07/23 09:55:48;;;;;;;5.70;3.40;;;;;;;24.43;41.47;101056.75;5012100;28;20201;-76
2021/07/23 09:58:21;;;;;;;4.45;3.33;;;;;;;24.52;41.56;101057.56;5011278;28;20226;-77
2021/07/23 10:00:56;;;;;;;3.17;2.83;;;;;;;24.63;41.30;101045.41;5013086;28;20665;-78
2021/07/23 10:03:26;;;;;;;3.75;2.67;;;;;;;24.71;41.25;101057.13;5014822;28;20387;-77
2021/07/23 10:05:57;;;;;;;6.13;3.10;;;;;;;24.76;40.49;101054.69;5014000;28;20252;-77
2021/07/23 10:08:29;;;;;;;3.83;3.38;;;;;;;24.77;40.04;101047.38;5008396;28;20236;-78
2021/07/23 10:10:59;;;;;;;4.25;2.85;;;;;;;24.78;39.73;101051.78;5014703;28;20586;-77
2021/07/23 10:13:29;;;;;;;4.07;2.80;;;;;;;24.82;39.79;101045.81;5010069;28;20846;-77
2021/07/23 10:15:56;;;;;;;3.10;2.80;;;;;;;24.89;39.41;101046.81;5006777;28;20198;-75
2021/07/23 10:18:23;;;;;;;4.78;2.92;;;;;;;25.01;39.54;101051.84;5005480;28;20225;-76
2021/07/23 10:20:50;;;;;;;5.13;2.78;;;;;;;25.05;39.21;101042.28;5012641;28;20212;-77
2021/07/23 10:23:19;;;;;;;4.53;3.28;;;;;;;25.09;39.45;101029.97;5007528;28;20644;-77
2021/07/23 10:25:48;;;;;;;4.03;2.83;;;;;;;25.13;39.01;101034.88;5012849;28;20206;-77
2021/07/23 10:28:49;;;;;;;3.75;2.42;;;;;;;25.18;39.30;101031.63;5012794;28;20239;-77
2021/07/23 10:31:46;;;;;;;3.50;2.60;;;;;;;25.27;39.17;101033.22;5012294;28;20205;-76
2021/07/23 10:34:33;;;;;;;4.28;2.50;;;;;;;25.38;39.48;101024.63;5007403;28;20317;-78
2021/07/23 10:37:03;;;;;;;3.67;2.20;;;;;;;25.48;39.10;101018.91;5012121;28;20204;-77
2021/07/23 10:39:30;;;;;;;3.35;2.72;;;;;;;25.51;39.07;101013.94;5007468;28;20239;-77
2021/07/23 10:42:34;;;;;;;3.15;2.58;;;;;;;25.54;38.36;101021.75;5013052;28;20230;-76
2021/07/23 10:45:01;;;;;;;3.47;2.45;;;;;;;25.54;38.19;101016.28;5011097;28;20206;-77
2021/07/23 10:47:40;;;;;;;4.05;2.40;;;;;;;25.58;38.41;101008.59;5009530;28;20310;-77
2021/07/23 10:50:08;;;;;;;3.88;2.25;;;;;;;25.67;38.09;101007.50;5010507;28;20231;-77
2021/07/23 10:52:38;;;;;;;3.22;2.03;;;;;;;25.74;37.56;101004.88;5013766;28;20547;-77
2021/07/23 10:55:20;;;;;;;3.63;1.88;;;;;;;25.82;37.77;101005.63;5011040;28;20226;-76
2021/07/23 10:58:33;;;;;;;3.67;1.92;;;;;;;25.86;37.91;101003.38;5011184;28;20681;-76
2021/07/23 11:01:01;;;;;;;2.13;1.92;;;;;;;25.95;37.43;100996.78;4974997;28;20213;-77
2021/07/23 11:03:49;;;;;;;2.47;1.80;;;;;;;26.02;36.57;101007.78;5014048;28;20210;-77
2021/07/23 11:06:17;;;;;;;4.45;1.95;;;;;;;25.98;36.95;100998.31;5010594;28;20214;-77
2021/07/23 11:08:48;;;;;;;2.63;1.25;;;;;;;26.00;37.11;100994.31;5009169;28;20223;-77
2021/07/23 11:11:17;;;;;;;3.20;1.45;;;;;;;26.02;36.83;100997.72;5013447;28;20206;-78
2021/07/23 11:13:44;;;;;;;2.33;1.50;;;;;;;26.03;36.72;101004.00;5012909;28;20212;-77
2021/07/23 11:16:12;;;;;;;2.97;1.95;;;;;;;26.04;36.54;100998.38;5012084;28;20207;-77
2021/07/23 11:18:52;;;;;;;2.05;1.63;;;;;;;26.03;36.86;100993.94;5014335;28;20237;-78
2021/07/23 11:21:19;;;;;;;2.25;1.55;;;;;;;26.08;36.72;100996.97;5014454;28;20221;-78
2021/07/23 11:23:46;;;;;;;4.10;1.67;;;;;;;26.15;36.78;100992.44;5015986;28;20206;-77
2021/07/23 11:26:14;;;;;;;2.67;1.80;;;;;;;26.15;36.28;100995.19;5017182;28;20229;-78
2021/07/23 11:28:47;;;;;;;1.90;1.50;;;;;;;26.16;36.15;100991.38;5015943;28;20226;-77